Mancos, Colorado
Current Conditions -  °F | °C
As of 11:53 AM on Tuesday 21 Oct 2014 (Local Time) from KCEZ Reporting Station
Overcast Overcast  
Wind Chill: 61°   Ceiling: 6000
Heat Index: 61°   Visibility: 10mi
Dew Point: 44°   Wind: 9mph
Humidity: 54%   Direction: 210°SSW
Pressure: 30.16"   Gusts: NA
Location:  37.34°N, 108.29°W
Report Text: KCEZ 211753Z AUTO 21008KT 10SM OVC060 16/07 A3016 RMK AO2 SLP163 T01610067 10167 20100 50002
Loading
Personal Weather Stations






























Interactive Weather Map New forecast layout! Learn more

10-Day Weather Forecast

Advertisements
Track Severe Weather on mobile